createdAt,value
2022-12-24T00:01:02.670Z,13.10
2022-12-24T00:03:29.516Z,13.10
2022-12-24T00:05:56.349Z,13.10
2022-12-24T00:08:23.428Z,13.10
2022-12-24T00:10:54.079Z,13.10
2022-12-24T00:13:21.039Z,13.10
2022-12-24T00:15:48.192Z,13.10
2022-12-24T00:18:15.000Z,13.10
2022-12-24T00:20:41.870Z,13.00
2022-12-24T00:23:08.875Z,13.10
2022-12-24T00:25:35.612Z,13.00
2022-12-24T00:28:02.288Z,13.10
2022-12-24T00:30:29.089Z,13.20
2022-12-24T00:32:55.950Z,13.20
2022-12-24T00:35:23.113Z,13.30
2022-12-24T00:37:50.557Z,13.20
2022-12-24T00:40:18.017Z,13.30
2022-12-24T00:42:45.048Z,13.30
2022-12-24T00:45:12.267Z,13.30
2022-12-24T00:47:39.377Z,13.20
2022-12-24T00:50:07.017Z,13.10
2022-12-24T00:52:33.834Z,13.10
2022-12-24T00:55:00.639Z,13.30
2022-12-24T00:57:27.377Z,13.10
2022-12-24T00:59:54.135Z,14.10
2022-12-24T01:02:21.200Z,13.20
2022-12-24T01:05:07.698Z,13.20
2022-12-24T01:07:34.527Z,13.10
2022-12-24T01:10:02.487Z,13.20
2022-12-24T01:12:29.248Z,13.20
2022-12-24T01:14:55.955Z,14.40
2022-12-24T01:17:22.718Z,13.10
2022-12-24T01:19:49.505Z,14.70
2022-12-24T01:22:17.531Z,13.10
2022-12-24T01:24:44.795Z,13.20
2022-12-24T01:27:11.634Z,13.20
2022-12-24T01:29:38.784Z,13.20
2022-12-24T01:32:05.503Z,13.20
2022-12-24T01:34:32.705Z,13.20
2022-12-24T01:36:59.405Z,13.20
2022-12-24T01:39:26.154Z,13.30
2022-12-24T01:42:11.246Z,13.30
2022-12-24T01:44:43.500Z,13.20
2022-12-24T01:47:28.606Z,13.30
2022-12-24T01:50:01.767Z,13.20
2022-12-24T01:52:31.272Z,13.30
2022-12-24T01:55:03.696Z,13.20
2022-12-24T01:57:34.606Z,13.20
2022-12-24T02:00:06.425Z,13.20
2022-12-24T02:02:34.426Z,13.10
2022-12-24T02:05:03.162Z,13.10
2022-12-24T02:07:30.557Z,13.00
2022-12-24T02:09:59.643Z,13.00
2022-12-24T02:12:28.737Z,13.00
2022-12-24T02:14:55.721Z,13.00
2022-12-24T02:17:54.476Z,13.00
2022-12-24T02:20:55.214Z,12.90
2022-12-24T02:23:44.191Z,12.90
2022-12-24T02:26:41.897Z,12.90
2022-12-24T02:29:21.373Z,12.90
2022-12-24T02:32:01.095Z,12.80
2022-12-24T02:34:30.518Z,11.70
2022-12-24T02:37:07.605Z,12.80
2022-12-24T02:42:31.255Z,12.80
2022-12-24T02:45:05.424Z,12.70
2022-12-24T02:47:34.086Z,12.70
2022-12-24T02:50:03.766Z,12.70
2022-12-24T02:52:35.008Z,12.80
2022-12-24T02:55:28.784Z,12.70
2022-12-24T02:58:08.082Z,12.80
2022-12-24T03:00:54.144Z,12.70
2022-12-24T03:03:41.600Z,12.70
2022-12-24T03:06:29.171Z,12.70
2022-12-24T03:09:04.850Z,12.70
2022-12-24T03:11:31.825Z,12.80
2022-12-24T03:13:59.932Z,12.80
2022-12-24T03:16:28.057Z,12.70
2022-12-24T03:18:57.457Z,12.70
2022-12-24T03:21:37.374Z,12.90
2022-12-24T03:24:04.491Z,12.80
2022-12-24T03:26:33.179Z,12.80
2022-12-24T03:29:00.751Z,14.10
2022-12-24T03:31:27.807Z,12.80
2022-12-24T03:33:54.549Z,12.80
2022-12-24T03:36:21.376Z,12.80
2022-12-24T03:38:48.761Z,12.80
2022-12-24T03:41:15.582Z,12.70
2022-12-24T03:43:42.487Z,12.70
2022-12-24T03:46:09.379Z,12.70
2022-12-24T03:48:36.800Z,12.60
2022-12-24T03:51:04.667Z,12.70
2022-12-24T03:53:31.957Z,12.60
2022-12-24T03:55:58.723Z,12.70
2022-12-24T03:58:25.523Z,12.70
2022-12-24T04:00:54.107Z,12.70
2022-12-24T04:03:21.846Z,12.70
2022-12-24T04:05:48.915Z,12.70
2022-12-24T04:08:15.850Z,12.70
2022-12-24T04:10:42.546Z,12.70
2022-12-24T04:13:09.417Z,12.80
2022-12-24T04:15:36.073Z,13.30
2022-12-24T04:18:02.784Z,12.60
2022-12-24T04:20:29.455Z,12.80
2022-12-24T04:22:56.209Z,12.70
2022-12-24T04:25:22.946Z,13.00
2022-12-24T04:27:49.617Z,12.70
2022-12-24T04:30:16.372Z,12.70
2022-12-24T04:32:43.021Z,12.80
2022-12-24T04:35:09.823Z,12.70
2022-12-24T04:37:36.606Z,12.80
2022-12-24T04:40:03.575Z,12.70
2022-12-24T04:42:30.260Z,12.70
2022-12-24T04:44:57.740Z,12.70
2022-12-24T04:47:24.530Z,12.70
2022-12-24T04:49:51.230Z,12.70
2022-12-24T04:52:17.970Z,12.60
2022-12-24T04:54:44.668Z,12.60
2022-12-24T04:57:11.328Z,12.60
2022-12-24T04:59:38.007Z,12.50
2022-12-24T05:02:04.985Z,12.50
2022-12-24T05:04:32.124Z,12.50
2022-12-24T05:06:58.825Z,12.50
2022-12-24T05:09:25.548Z,12.50
2022-12-24T05:11:52.319Z,12.40
2022-12-24T05:14:19.044Z,12.40
2022-12-24T05:16:45.961Z,12.40
2022-12-24T05:19:12.627Z,12.40
2022-12-24T05:21:39.450Z,12.40
2022-12-24T05:24:24.954Z,12.30
2022-12-24T05:26:57.348Z,12.30
2022-12-24T05:29:24.598Z,12.30
2022-12-24T05:31:51.305Z,12.30
2022-12-24T05:34:18.099Z,12.20
2022-12-24T05:36:45.501Z,12.20
2022-12-24T05:39:17.727Z,12.20
2022-12-24T05:41:45.311Z,12.20
2022-12-24T05:44:12.019Z,12.20
2022-12-24T05:46:38.843Z,12.20
2022-12-24T05:49:05.843Z,12.20
2022-12-24T05:51:32.671Z,12.20
2022-12-24T05:53:59.635Z,12.20
2022-12-24T05:56:26.785Z,12.40
2022-12-24T05:58:54.644Z,12.30
2022-12-24T06:01:22.875Z,12.30
2022-12-24T06:03:50.719Z,12.30
2022-12-24T06:06:20.963Z,12.30
2022-12-24T06:08:49.361Z,12.30
2022-12-24T06:11:18.436Z,12.30
2022-12-24T06:13:45.304Z,12.20
2022-12-24T06:16:17.833Z,12.30
2022-12-24T06:18:45.222Z,12.20
2022-12-24T06:21:13.026Z,12.20
2022-12-24T06:23:41.957Z,12.20
2022-12-24T06:26:11.429Z,12.40
2022-12-24T06:28:38.762Z,12.20
2022-12-24T06:31:07.223Z,12.30
2022-12-24T06:33:34.693Z,12.10
2022-12-24T06:36:01.993Z,12.20
2022-12-24T06:38:31.045Z,12.10
2022-12-24T06:40:57.850Z,12.10
2022-12-24T06:43:24.683Z,12.10
2022-12-24T06:45:51.826Z,12.10
2022-12-24T06:48:18.531Z,12.10
2022-12-24T06:50:45.581Z,12.10
2022-12-24T06:53:12.310Z,12.00
2022-12-24T06:55:38.994Z,12.00
2022-12-24T06:58:05.708Z,12.00
2022-12-24T07:00:32.393Z,11.90
2022-12-24T07:02:59.294Z,11.90
2022-12-24T07:05:26.507Z,11.90
2022-12-24T07:07:53.375Z,11.90
2022-12-24T07:10:20.900Z,11.80
2022-12-24T07:12:48.297Z,11.90
2022-12-24T07:15:16.267Z,11.90
2022-12-24T07:17:43.473Z,11.80
2022-12-24T07:20:13.723Z,11.80
2022-12-24T07:22:40.672Z,11.80
2022-12-24T07:25:07.720Z,11.80
2022-12-24T07:27:34.601Z,11.80
2022-12-24T07:30:01.340Z,12.30
2022-12-24T07:32:28.082Z,11.70
2022-12-24T07:34:54.809Z,11.80
2022-12-24T07:37:21.442Z,11.80
2022-12-24T07:39:48.318Z,11.80
2022-12-24T07:42:15.042Z,11.80
2022-12-24T07:44:41.859Z,11.80
2022-12-24T07:47:08.832Z,11.80
2022-12-24T07:49:36.365Z,11.70
2022-12-24T07:52:04.210Z,11.70
2022-12-24T07:54:30.989Z,11.70
2022-12-24T07:56:57.870Z,11.70
2022-12-24T07:59:24.755Z,11.70
2022-12-24T08:01:51.766Z,11.80
2022-12-24T08:04:18.858Z,11.80
2022-12-24T08:06:45.546Z,11.80
2022-12-24T08:09:14.275Z,11.80
2022-12-24T08:11:46.178Z,11.80
2022-12-24T08:14:16.648Z,11.90
2022-12-24T08:16:43.516Z,12.00
2022-12-24T08:19:10.258Z,11.90
2022-12-24T08:21:37.014Z,12.00
2022-12-24T08:24:03.983Z,12.40
2022-12-24T08:26:33.631Z,11.90
2022-12-24T08:29:00.418Z,12.00
2022-12-24T08:31:27.315Z,12.00
2022-12-24T08:33:54.107Z,12.00
2022-12-24T08:36:20.769Z,13.00
2022-12-24T08:38:47.507Z,12.10
2022-12-24T08:41:14.176Z,12.30
2022-12-24T08:43:40.887Z,12.10
2022-12-24T08:46:08.168Z,12.10
2022-12-24T08:48:36.584Z,12.10
2022-12-24T08:51:10.783Z,12.10
2022-12-24T08:53:38.385Z,12.20
2022-12-24T08:56:07.989Z,12.20
2022-12-24T08:58:35.211Z,12.20
2022-12-24T09:01:02.395Z,12.20
2022-12-24T09:03:29.352Z,12.20
2022-12-24T09:05:56.286Z,12.30
2022-12-24T09:08:22.980Z,12.30
2022-12-24T09:10:49.639Z,12.50
2022-12-24T09:13:16.402Z,12.20
2022-12-24T09:15:43.087Z,12.40
2022-12-24T09:18:10.603Z,12.40
2022-12-24T09:20:38.725Z,12.40
2022-12-24T09:23:08.289Z,12.40
2022-12-24T09:25:35.180Z,12.50
2022-12-24T09:28:01.951Z,12.40
2022-12-24T09:30:28.669Z,12.50
2022-12-24T09:32:55.298Z,12.50
2022-12-24T09:35:22.042Z,13.00
2022-12-24T09:37:48.703Z,12.60
2022-12-24T09:40:30.797Z,12.50
2022-12-24T09:42:57.561Z,12.50
2022-12-24T09:45:31.647Z,12.50
2022-12-24T09:48:00.445Z,12.60
2022-12-24T09:50:49.931Z,12.60
2022-12-24T09:53:27.601Z,12.70
2022-12-24T09:55:58.256Z,12.70
2022-12-24T09:58:47.506Z,12.70
2022-12-24T10:01:16.908Z,12.80
2022-12-24T10:03:44.238Z,12.80
2022-12-24T10:06:32.390Z,12.80
2022-12-24T10:09:34.295Z,12.80
2022-12-24T10:12:13.413Z,12.90
2022-12-24T10:14:43.313Z,12.90
2022-12-24T10:17:35.020Z,12.80
2022-12-24T10:20:33.630Z,12.90
2022-12-24T10:23:06.702Z,12.90
2022-12-24T10:26:20.649Z,12.90
2022-12-24T10:29:27.682Z,12.90
2022-12-24T10:32:09.555Z,12.90
2022-12-24T10:34:44.188Z,13.00
2022-12-24T10:37:16.897Z,13.00
2022-12-24T10:39:43.993Z,13.00
2022-12-24T10:42:13.539Z,13.10
2022-12-24T10:44:40.375Z,13.20
2022-12-24T10:47:09.552Z,13.20
2022-12-24T10:49:39.377Z,13.40
2022-12-24T10:52:13.991Z,13.30
2022-12-24T10:55:03.614Z,13.40
2022-12-24T10:57:30.437Z,13.50
2022-12-24T10:59:57.545Z,13.40
2022-12-24T11:02:34.541Z,13.50
2022-12-24T11:05:03.787Z,13.60
2022-12-24T11:07:32.085Z,13.60
2022-12-24T11:10:02.129Z,14.20
2022-12-24T11:12:35.835Z,13.80
2022-12-24T11:15:24.381Z,14.90
2022-12-24T11:18:00.648Z,13.90
2022-12-24T11:20:29.285Z,13.80
2022-12-24T11:22:56.807Z,13.90
2022-12-24T11:25:31.850Z,14.90
2022-12-24T11:28:18.917Z,13.90
2022-12-24T11:31:07.254Z,13.90
2022-12-24T11:33:47.688Z,13.90
2022-12-24T11:36:16.399Z,13.90
2022-12-24T11:38:51.725Z,13.90
2022-12-24T11:41:18.542Z,13.80
2022-12-24T11:43:47.869Z,13.80
2022-12-24T11:46:17.288Z,13.80
2022-12-24T11:48:44.478Z,13.90
2022-12-24T11:51:26.548Z,13.90
2022-12-24T11:54:19.696Z,13.90
2022-12-24T11:56:52.744Z,13.90
2022-12-24T11:59:30.674Z,13.90
2022-12-24T12:02:18.803Z,13.90
2022-12-24T12:04:50.075Z,13.90
2022-12-24T12:07:25.562Z,13.90
2022-12-24T12:10:07.753Z,14.00
2022-12-24T12:12:40.619Z,13.90
2022-12-24T12:15:24.771Z,13.90
2022-12-24T12:18:37.913Z,13.90
2022-12-24T12:21:10.917Z,13.90
2022-12-24T12:23:47.207Z,14.00
2022-12-24T12:26:28.135Z,14.00
2022-12-24T12:28:57.674Z,14.00
2022-12-24T12:31:54.867Z,14.00
2022-12-24T12:34:27.736Z,14.10
2022-12-24T12:37:14.210Z,14.00
2022-12-24T12:39:41.762Z,14.00
2022-12-24T12:42:22.680Z,14.00
2022-12-24T12:44:57.736Z,14.00
2022-12-24T12:47:45.819Z,14.00
2022-12-24T12:50:35.822Z,14.00
2022-12-24T12:53:28.616Z,13.90
2022-12-24T12:56:13.541Z,14.10
2022-12-24T12:58:43.757Z,14.00
2022-12-24T13:01:15.787Z,14.00
2022-12-24T13:04:16.857Z,14.00
2022-12-24T13:07:06.776Z,14.00
2022-12-24T13:09:58.195Z,14.00
2022-12-24T13:12:36.815Z,14.00
2022-12-24T13:15:37.889Z,14.00
2022-12-24T13:18:24.958Z,14.00
2022-12-24T13:20:52.619Z,13.90
2022-12-24T13:23:22.550Z,13.90
2022-12-24T13:25:58.096Z,13.90
2022-12-24T13:28:24.985Z,14.00
2022-12-24T13:30:52.757Z,14.00
2022-12-24T13:33:37.850Z,13.90
2022-12-24T13:36:16.641Z,13.80
2022-12-24T13:38:44.857Z,13.80
2022-12-24T13:41:40.559Z,13.90
2022-12-24T13:44:13.092Z,13.90
2022-12-24T13:47:14.188Z,13.80
2022-12-24T13:49:44.329Z,13.80
2022-12-24T13:52:11.187Z,13.70
2022-12-24T13:54:41.529Z,13.60
2022-12-24T13:57:29.923Z,13.70
2022-12-24T14:00:22.605Z,13.70
2022-12-24T14:03:01.356Z,13.80
2022-12-24T14:05:44.424Z,13.70
2022-12-24T14:08:28.144Z,13.80
2022-12-24T14:11:22.862Z,13.70
2022-12-24T14:13:51.429Z,13.70
2022-12-24T14:16:21.984Z,13.80
2022-12-24T14:19:16.697Z,13.70
2022-12-24T14:22:02.783Z,13.70
2022-12-24T14:24:42.710Z,13.70
2022-12-24T14:27:32.183Z,13.60
2022-12-24T14:30:18.050Z,13.60
2022-12-24T14:32:45.469Z,13.60
2022-12-24T14:35:27.232Z,13.50
2022-12-24T14:38:16.109Z,13.50
2022-12-24T14:41:07.342Z,14.20
2022-12-24T14:43:50.103Z,13.50
2022-12-24T14:46:40.474Z,14.20
2022-12-24T14:49:24.193Z,13.40
2022-12-24T14:52:00.270Z,13.40
2022-12-24T14:54:32.494Z,13.30
2022-12-24T14:57:12.509Z,13.40
2022-12-24T14:59:52.819Z,13.30
2022-12-24T15:02:42.256Z,13.30
2022-12-24T15:05:15.721Z,13.30
2022-12-24T15:07:57.492Z,13.30
2022-12-24T15:10:28.832Z,13.30
2022-12-24T15:12:58.054Z,13.20
2022-12-24T15:15:25.182Z,13.90
2022-12-24T15:17:52.436Z,13.30
2022-12-24T15:20:23.557Z,13.20
2022-12-24T15:22:53.744Z,13.20
2022-12-24T15:25:25.793Z,13.20
2022-12-24T15:27:52.614Z,13.20
2022-12-24T15:30:23.474Z,13.10
2022-12-24T15:32:52.650Z,13.10
2022-12-24T15:35:35.158Z,13.10
2022-12-24T15:38:04.087Z,13.00
2022-12-24T15:40:33.219Z,13.20
2022-12-24T15:43:00.255Z,12.80
2022-12-24T15:45:34.479Z,13.10
2022-12-24T15:48:08.640Z,12.80
2022-12-24T15:50:38.050Z,12.80
2022-12-24T15:53:19.954Z,12.80
2022-12-24T15:56:08.577Z,12.70
2022-12-24T15:58:37.948Z,12.70
2022-12-24T16:01:10.310Z,12.70
2022-12-24T16:03:39.788Z,12.60
2022-12-24T16:06:13.812Z,12.70
2022-12-24T16:08:42.622Z,12.60
2022-12-24T16:11:23.695Z,12.60
2022-12-24T16:14:04.414Z,12.60
2022-12-24T16:16:42.535Z,12.50
2022-12-24T16:19:34.387Z,12.50
2022-12-24T16:22:41.722Z,12.50
2022-12-24T16:25:28.489Z,12.50
2022-12-24T16:27:59.860Z,12.40
2022-12-24T16:30:27.258Z,12.50
2022-12-24T16:32:54.127Z,12.70
2022-12-24T16:35:26.490Z,13.00
2022-12-24T16:37:54.662Z,12.50
2022-12-24T16:40:26.769Z,12.40
2022-12-24T16:43:13.237Z,12.40
2022-12-24T16:45:40.077Z,12.30
2022-12-24T16:48:08.352Z,12.30
2022-12-24T16:50:35.852Z,12.30
2022-12-24T16:53:02.651Z,12.70
2022-12-24T16:55:29.906Z,12.30
2022-12-24T16:57:56.661Z,13.50
2022-12-24T17:00:25.538Z,12.40
2022-12-24T17:02:53.224Z,12.40
2022-12-24T17:05:23.622Z,12.40
2022-12-24T17:07:50.983Z,12.40
2022-12-24T17:10:17.923Z,12.40
2022-12-24T17:12:44.654Z,12.30
2022-12-24T17:15:11.720Z,12.40
2022-12-24T17:17:38.560Z,12.30
2022-12-24T17:20:06.168Z,12.40
2022-12-24T17:22:32.939Z,12.40
2022-12-24T17:24:59.743Z,12.40
2022-12-24T17:27:26.505Z,12.30
2022-12-24T17:29:53.391Z,12.30
2022-12-24T17:32:20.177Z,12.30
2022-12-24T17:34:46.949Z,12.40
2022-12-24T17:37:13.884Z,12.20
2022-12-24T17:39:40.677Z,12.20
2022-12-24T17:42:07.480Z,12.20
2022-12-24T17:44:34.232Z,12.20
2022-12-24T17:47:01.916Z,12.30
2022-12-24T17:49:28.999Z,12.20
2022-12-24T17:51:56.018Z,12.30
2022-12-24T17:54:22.885Z,12.20
2022-12-24T17:56:49.734Z,12.20
2022-12-24T17:59:16.581Z,12.20
2022-12-24T18:01:43.363Z,12.20
2022-12-24T18:04:10.925Z,12.30
2022-12-24T18:06:44.126Z,12.30
2022-12-24T18:09:14.360Z,13.20
2022-12-24T18:11:41.150Z,12.30
2022-12-24T18:14:08.278Z,12.30
2022-12-24T18:16:37.540Z,12.30
2022-12-24T18:19:06.184Z,12.30
2022-12-24T18:21:33.902Z,12.30
2022-12-24T18:24:01.455Z,12.40
2022-12-24T18:26:30.153Z,12.30
2022-12-24T18:28:58.467Z,12.30
2022-12-24T18:31:26.700Z,12.30
2022-12-24T18:33:55.771Z,13.10
2022-12-24T18:36:23.418Z,12.20
2022-12-24T18:38:50.377Z,12.20
2022-12-24T18:41:20.007Z,12.20
2022-12-24T18:43:46.906Z,12.20
2022-12-24T18:46:16.383Z,12.20
2022-12-24T18:48:43.527Z,12.20
2022-12-24T18:51:10.890Z,12.30
2022-12-24T18:53:37.835Z,12.20
2022-12-24T18:56:05.551Z,12.20
2022-12-24T18:58:32.301Z,12.20
2022-12-24T19:00:59.219Z,12.10
2022-12-24T19:03:26.097Z,12.10
2022-12-24T19:05:52.879Z,12.10
2022-12-24T19:08:55.799Z,12.10
2022-12-24T19:11:06.695Z,12.10
2022-12-24T19:13:33.727Z,12.10
2022-12-24T19:16:01.171Z,12.20
2022-12-24T19:18:28.291Z,12.10
2022-12-24T19:20:55.060Z,12.10
2022-12-24T19:23:21.739Z,13.00
2022-12-24T19:25:50.148Z,12.20
2022-12-24T19:28:20.157Z,12.20
2022-12-24T19:30:49.361Z,12.20
2022-12-24T19:33:16.004Z,12.20
2022-12-24T19:35:42.692Z,12.10
2022-12-24T19:38:10.710Z,12.20
2022-12-24T19:40:37.932Z,12.20
2022-12-24T19:43:05.000Z,12.10
2022-12-24T19:45:31.734Z,12.10
2022-12-24T19:47:58.471Z,12.80
2022-12-24T19:50:25.238Z,12.20
2022-12-24T19:52:52.034Z,12.20
2022-12-24T19:55:18.805Z,12.20
2022-12-24T19:57:45.462Z,12.20
2022-12-24T20:00:12.591Z,12.30
2022-12-24T20:02:39.870Z,12.20
2022-12-24T20:05:06.987Z,12.20
2022-12-24T20:07:33.726Z,12.20
2022-12-24T20:10:00.541Z,12.20
2022-12-24T20:12:30.353Z,12.20
2022-12-24T20:14:57.611Z,12.20
2022-12-24T20:17:25.523Z,12.10
2022-12-24T20:19:52.362Z,12.10
2022-12-24T20:22:19.071Z,12.10
2022-12-24T20:24:45.798Z,12.10
2022-12-24T20:27:12.524Z,12.20
2022-12-24T20:29:39.328Z,12.10
2022-12-24T20:32:06.446Z,12.10
2022-12-24T20:34:33.293Z,12.10
2022-12-24T20:37:00.067Z,12.10
2022-12-24T20:39:26.916Z,12.10
2022-12-24T20:41:56.426Z,12.10
2022-12-24T20:44:23.250Z,12.90
2022-12-24T20:46:49.951Z,12.10
2022-12-24T20:49:16.716Z,12.10
2022-12-24T20:51:43.461Z,12.10
2022-12-24T20:54:11.030Z,12.20
2022-12-24T20:56:37.964Z,12.10
2022-12-24T20:59:04.707Z,12.20
2022-12-24T21:01:31.652Z,12.20
2022-12-24T21:04:04.420Z,12.30
2022-12-24T21:06:32.559Z,12.30
2022-12-24T21:08:59.708Z,12.10
2022-12-24T21:11:45.083Z,12.10
2022-12-24T21:14:12.138Z,12.00
2022-12-24T21:16:40.044Z,12.00
2022-12-24T21:19:08.419Z,13.10
2022-12-24T21:21:35.589Z,12.00
2022-12-24T21:24:03.136Z,12.00
2022-12-24T21:26:30.298Z,12.30
2022-12-24T21:28:57.256Z,12.00
2022-12-24T21:31:24.136Z,12.00
2022-12-24T21:33:50.982Z,12.00
2022-12-24T21:36:18.188Z,12.20
2022-12-24T21:38:45.061Z,12.10
2022-12-24T21:41:14.547Z,12.00
2022-12-24T21:43:41.965Z,12.00
2022-12-24T21:46:10.373Z,12.00
2022-12-24T21:48:56.608Z,12.00
2022-12-24T21:51:24.655Z,12.10
2022-12-24T21:54:10.248Z,12.00
2022-12-24T21:56:57.579Z,11.90
2022-12-24T21:59:26.853Z,11.90
2022-12-24T22:01:55.008Z,11.90
2022-12-24T22:04:22.131Z,11.90
2022-12-24T22:07:07.567Z,11.90
2022-12-24T22:09:53.137Z,11.90
2022-12-24T22:12:20.071Z,12.00
2022-12-24T22:14:46.785Z,11.90
2022-12-24T22:17:13.524Z,11.90
2022-12-24T22:19:40.359Z,11.90
2022-12-24T22:22:07.204Z,11.90
2022-12-24T22:24:33.891Z,11.90
2022-12-24T22:27:00.548Z,12.00
2022-12-24T22:29:27.280Z,12.00
2022-12-24T22:31:53.924Z,12.80
2022-12-24T22:34:20.662Z,11.90
2022-12-24T22:36:47.345Z,11.90
2022-12-24T22:39:14.287Z,12.00
2022-12-24T22:41:40.921Z,12.80
2022-12-24T22:44:07.565Z,11.90
2022-12-24T22:46:34.337Z,11.90
2022-12-24T22:49:01.152Z,11.90
2022-12-24T22:51:27.957Z,11.90
2022-12-24T22:53:54.683Z,11.80
2022-12-24T22:56:22.621Z,11.90
2022-12-24T22:58:56.385Z,11.90
2022-12-24T23:01:33.181Z,11.90
2022-12-24T23:04:00.182Z,11.90
2022-12-24T23:06:27.128Z,11.90
2022-12-24T23:08:53.818Z,11.90
2022-12-24T23:11:20.816Z,11.90
2022-12-24T23:14:06.220Z,11.80
2022-12-24T23:16:33.382Z,11.80
2022-12-24T23:19:01.611Z,11.80
2022-12-24T23:21:29.031Z,11.90
2022-12-24T23:24:01.219Z,11.80
2022-12-24T23:26:29.122Z,11.80
2022-12-24T23:28:56.473Z,11.80
2022-12-24T23:31:24.613Z,11.80
2022-12-24T23:33:51.627Z,11.90
2022-12-24T23:36:18.902Z,11.70
2022-12-24T23:38:45.945Z,11.70
2022-12-24T23:41:12.991Z,11.90
2022-12-24T23:43:39.830Z,11.70
2022-12-24T23:46:06.761Z,11.70
2022-12-24T23:48:33.502Z,11.80
2022-12-24T23:51:13.457Z,11.80
2022-12-24T23:53:40.244Z,11.80
2022-12-24T23:56:08.275Z,11.80
2022-12-24T23:58:35.024Z,11.90
